Time;durP1;ratioP1;P1;durP2;ratioP2;P2;SDS_P1;SDS_P2;PMS_P1;PMS_P2;Temp;Humidity;BMP_temperature;BMP_pressure;BME280_temperature;BME280_humidity;BME280_pressure;Samples;Min_cycle;Max_cycle;Signal;HPM_P1;HPM_P2
2023/03/07 00:00:35;;;;;;;47.67;26.60;;;;;;;6.70;100.00;99419.34;5017531;28;20029;-70
2023/03/07 00:03:01;;;;;;;45.47;27.50;;;;;;;6.67;100.00;99404.47;5029568;28;20041;-70
2023/03/07 00:05:26;;;;;;;53.55;28.55;;;;;;;6.70;100.00;99412.19;5029141;28;20044;-70
2023/03/07 00:07:52;;;;;;;44.67;26.35;;;;;;;6.73;100.00;99414.59;5029433;28;20034;-69
2023/03/07 00:10:18;;;;;;;49.83;28.05;;;;;;;6.74;100.00;99416.28;5029564;28;20408;-69
2023/03/07 00:12:43;;;;;;;49.15;26.50;;;;;;;6.70;100.00;99409.53;5029518;28;20033;-69
2023/03/07 00:15:10;;;;;;;48.47;28.33;;;;;;;6.70;100.00;99404.19;5023456;28;20121;-70
2023/03/07 00:17:36;;;;;;;55.95;32.17;;;;;;;6.74;100.00;99410.13;5029404;28;20036;-70
2023/03/07 00:20:07;;;;;;;60.13;32.22;;;;;;;6.74;100.00;99408.28;5023829;28;20037;-69
2023/03/07 00:22:34;;;;;;;58.58;32.90;;;;;;;6.72;100.00;99410.25;5029271;28;20087;-70
2023/03/07 00:24:59;;;;;;;52.17;30.27;;;;;;;6.67;100.00;99395.63;5029117;28;20358;-69
2023/03/07 00:27:24;;;;;;;49.20;31.65;;;;;;;6.77;100.00;99416.00;5019161;28;20036;-71
2023/03/07 00:29:50;;;;;;;54.00;30.40;;;;;;;6.76;100.00;99416.16;5029033;28;20033;-70
2023/03/07 00:32:16;;;;;;;58.22;31.13;;;;;;;6.74;100.00;99405.63;5028935;28;20113;-70
2023/03/07 00:34:41;;;;;;;55.70;30.50;;;;;;;6.75;100.00;99420.63;5021773;28;20124;-70
2023/03/07 00:37:07;;;;;;;51.45;30.33;;;;;;;6.67;100.00;99404.47;5016579;28;20025;-68
2023/03/07 00:39:32;;;;;;;53.58;30.52;;;;;;;6.75;100.00;99425.94;5029166;28;20061;-70
2023/03/07 00:41:58;;;;;;;59.33;32.53;;;;;;;6.87;100.00;99414.22;5029197;28;20041;-71
2023/03/07 00:44:25;;;;;;;55.92;30.75;;;;;;;6.81;100.00;99419.28;5018842;28;20049;-70
2023/03/07 00:46:51;;;;;;;46.05;26.85;;;;;;;6.91;100.00;99422.81;5028697;28;20022;-69
2023/03/07 00:49:19;;;;;;;47.85;24.63;;;;;;;6.69;100.00;99391.88;5020926;28;20080;-70
2023/03/07 00:51:44;;;;;;;45.30;26.05;;;;;;;6.83;100.00;99404.81;5016700;28;20017;-70
2023/03/07 00:54:10;;;;;;;46.80;26.15;;;;;;;6.84;100.00;99395.84;5028950;28;20033;-70
2023/03/07 00:56:35;;;;;;;49.75;27.60;;;;;;;6.78;100.00;99391.03;5019817;28;20089;-70
2023/03/07 00:59:00;;;;;;;44.65;27.15;;;;;;;6.69;100.00;99375.88;5028854;28;20021;-70
2023/03/07 01:01:26;;;;;;;47.63;25.70;;;;;;;6.73;100.00;99387.94;5029186;28;20049;-69
2023/03/07 01:03:52;;;;;;;47.78;25.73;;;;;;;6.73;100.00;99387.09;5028458;28;20133;-70
2023/03/07 01:06:19;;;;;;;42.03;24.02;;;;;;;6.74;100.00;99388.81;5028835;28;20069;-70
2023/03/07 01:08:45;;;;;;;45.53;26.15;;;;;;;6.69;100.00;99370.56;5028924;28;20041;-70
2023/03/07 01:11:11;;;;;;;43.42;26.23;;;;;;;6.68;100.00;99368.84;5028734;28;20033;-70
2023/03/07 01:13:38;;;;;;;42.17;25.27;;;;;;;6.69;100.00;99367.03;5028868;28;20088;-71
2023/03/07 01:16:11;;;;;;;49.30;27.38;;;;;;;6.73;100.00;99360.44;5014395;28;20025;-69
2023/03/07 01:18:37;;;;;;;52.03;28.42;;;;;;;6.70;100.00;99360.72;5028313;28;20029;-69
2023/03/07 01:21:14;;;;;;;48.08;28.90;;;;;;;6.70;100.00;99360.72;5020781;28;20056;-70
2023/03/07 01:23:40;;;;;;;49.08;28.33;;;;;;;6.69;100.00;99365.22;5022934;28;20791;-69
2023/03/07 01:26:05;;;;;;;48.20;28.00;;;;;;;6.63;100.00;99352.44;5018581;28;20053;-69
2023/03/07 01:28:31;;;;;;;52.20;29.08;;;;;;;6.66;100.00;99357.50;5032589;28;20095;-70
2023/03/07 01:30:58;;;;;;;51.53;29.85;;;;;;;6.62;100.00;99348.06;5025305;28;20544;-69
2023/03/07 01:33:24;;;;;;;53.03;29.50;;;;;;;6.63;100.00;99349.78;5031628;28;20427;-68
2023/03/07 01:35:49;;;;;;;54.45;30.98;;;;;;;6.60;100.00;99347.38;5030831;28;20018;-68
2023/03/07 01:38:15;;;;;;;54.05;30.65;;;;;;;6.65;100.00;99361.13;5031030;28;20029;-67
2023/03/07 01:40:40;;;;;;;48.03;28.77;;;;;;;6.62;100.00;99350.72;5030955;28;20033;-68
2023/03/07 01:43:27;;;;;;;50.90;29.85;;;;;;;6.60;100.00;99352.69;5030677;28;20025;-67
2023/03/07 01:46:17;;;;;;;50.85;29.73;;;;;;;6.60;100.00;99351.84;5030618;28;20449;-68
2023/03/07 01:48:58;;;;;;;50.15;28.48;;;;;;;6.54;100.00;99361.22;5030952;28;20072;-68
2023/03/07 01:51:24;;;;;;;50.17;28.20;;;;;;;6.44;100.00;99355.00;5030653;28;20044;-68
2023/03/07 01:53:51;;;;;;;51.92;28.17;;;;;;;6.47;100.00;99372.53;5030554;28;20033;-68
2023/03/07 01:56:18;;;;;;;48.67;28.50;;;;;;;6.48;100.00;99375.06;5030649;28;20338;-68
2023/03/07 01:58:45;;;;;;;47.13;27.98;;;;;;;6.49;100.00;99373.25;5030829;28;20037;-68
2023/03/07 02:01:13;;;;;;;43.03;26.58;;;;;;;6.46;100.00;99374.38;5027241;28;20029;-68
2023/03/07 02:03:56;;;;;;;46.15;26.65;;;;;;;6.44;100.00;99378.97;5048116;28;20055;-68
2023/03/07 02:06:26;;;;;;;47.42;27.15;;;;;;;6.38;100.00;99371.50;5050394;28;20036;-68
2023/03/07 02:08:53;;;;;;;49.88;28.38;;;;;;;6.44;100.00;99376.31;5028788;28;20033;-67
2023/03/07 02:11:19;;;;;;;48.58;27.45;;;;;;;6.44;100.00;99378.13;5030438;28;20584;-68
2023/03/07 02:13:44;;;;;;;57.15;30.15;;;;;;;6.40;100.00;99377.56;5030409;28;20037;-68
2023/03/07 02:16:10;;;;;;;47.38;27.40;;;;;;;6.43;100.00;99377.28;5031123;28;20037;-68
2023/03/07 02:18:46;;;;;;;53.60;29.50;;;;;;;6.38;100.00;99367.97;5034663;28;20028;-67
2023/03/07 02:21:21;;;;;;;48.85;28.20;;;;;;;6.38;100.00;99379.50;5028966;28;20080;-67
2023/03/07 02:24:03;;;;;;;45.55;26.83;;;;;;;6.31;100.00;99372.16;5041038;28;20415;-68
2023/03/07 02:26:48;;;;;;;44.55;26.73;;;;;;;6.34;100.00;99370.09;5030814;28;20033;-68
2023/03/07 02:29:14;;;;;;;49.35;27.45;;;;;;;6.20;100.00;99357.13;5022266;28;20755;-70
2023/03/07 02:31:40;;;;;;;50.15;28.33;;;;;;;6.36;100.00;99372.63;5042493;28;20068;-70
2023/03/07 02:34:35;;;;;;;49.10;27.65;;;;;;;6.34;100.00;99363.91;5038266;28;20395;-70
2023/03/07 02:37:03;;;;;;;;;;;;;;;6.32;100.00;99360.53;5036227;28;20094;-70
2023/03/07 02:39:29;;;;;;;44.95;25.33;;;;;;;6.34;100.00;99359.44;5026551;28;19922;-69
2023/03/07 02:42:01;;;;;;;44.13;25.73;;;;;;;6.28;100.00;99351.13;5048597;28;20622;-70
2023/03/07 02:44:27;;;;;;;48.75;26.83;;;;;;;6.36;100.00;99356.63;5037034;28;20052;-69
2023/03/07 02:46:52;;;;;;;40.90;25.30;;;;;;;6.25;100.00;99343.38;5045879;28;20365;-68
2023/03/07 02:49:18;;;;;;;42.72;25.80;;;;;;;6.32;100.00;99356.03;5040423;28;20079;-68
2023/03/07 02:51:43;;;;;;;44.33;25.80;;;;;;;6.27;100.00;99355.63;5039807;28;20055;-68
2023/03/07 02:54:08;;;;;;;42.65;25.83;;;;;;;6.24;100.00;99363.00;5034288;28;20476;-68
2023/03/07 02:56:34;;;;;;;43.80;24.95;;;;;;;6.29;100.00;99376.78;5041414;28;20040;-67
2023/03/07 02:58:59;;;;;;;49.30;28.38;;;;;;;6.37;100.00;99385.81;5033978;28;20030;-67
2023/03/07 03:01:25;;;;;;;45.78;26.98;;;;;;;6.43;100.00;99379.09;5038737;28;20029;-68
2023/03/07 03:03:51;;;;;;;46.38;26.73;;;;;;;6.39;100.00;99388.34;5037137;28;20071;-68
2023/03/07 03:06:16;;;;;;;42.75;26.63;;;;;;;6.31;100.00;99386.31;5035915;28;20025;-70
2023/03/07 03:08:42;;;;;;;50.33;28.05;;;;;;;6.24;100.00;99385.16;5041124;28;20051;-70
2023/03/07 03:11:07;;;;;;;47.70;27.20;;;;;;;6.24;100.00;99400.28;5026060;28;20072;-70
2023/03/07 03:13:33;;;;;;;48.08;26.02;;;;;;;6.26;100.00;99395.69;5033572;28;20361;-70
2023/03/07 03:15:58;;;;;;;45.33;26.77;;;;;;;6.21;100.00;99388.06;5034356;28;20701;-70
2023/03/07 03:18:27;;;;;;;41.83;25.88;;;;;;;6.45;100.00;99398.47;5033335;28;20048;-68
2023/03/07 03:20:52;;;;;;;43.25;25.40;;;;;;;6.31;100.00;99388.97;5036082;28;20052;-68
2023/03/07 03:23:18;;;;;;;44.40;26.27;;;;;;;6.25;100.00;99365.53;5045432;28;20041;-68
2023/03/07 03:25:43;;;;;;;46.90;26.15;;;;;;;6.22;100.00;99380.91;5036472;28;20042;-68
2023/03/07 03:28:09;;;;;;;50.60;28.52;;;;;;;6.24;100.00;99371.00;5032043;28;20035;-67
2023/03/07 03:30:34;;;;;;;49.42;27.52;;;;;;;6.14;100.00;99357.63;5033757;28;20124;-68
2023/03/07 03:33:02;;;;;;;46.25;27.08;;;;;;;6.01;100.00;99351.66;5018208;28;20087;-69
2023/03/07 03:35:27;;;;;;;49.97;29.25;;;;;;;6.07;100.00;99360.94;5017328;28;20036;-68
2023/03/07 03:37:53;;;;;;;48.38;26.85;;;;;;;6.04;100.00;99369.19;5020184;28;20025;-68
2023/03/07 03:40:19;;;;;;;49.38;27.98;;;;;;;6.10;100.00;99366.00;5031246;28;20073;-70
2023/03/07 03:42:45;;;;;;;55.03;28.63;;;;;;;6.03;100.00;99352.34;5039295;28;20484;-66
2023/03/07 03:45:11;;;;;;;44.63;27.27;;;;;;;6.06;100.00;99365.41;5038664;28;20024;-68
2023/03/07 03:47:37;;;;;;;54.83;30.52;;;;;;;6.06;100.00;99369.91;5018037;28;20021;-70
2023/03/07 03:50:03;;;;;;;48.50;29.40;;;;;;;6.02;100.00;99361.31;5034173;28;20025;-70
2023/03/07 03:52:29;;;;;;;54.22;29.15;;;;;;;6.01;100.00;99359.66;5021334;28;20672;-70
2023/03/07 03:54:54;;;;;;;55.15;30.92;;;;;;;5.99;100.00;99358.06;5031246;28;20037;-70
2023/03/07 03:57:20;;;;;;;52.60;30.65;;;;;;;5.94;100.00;99363.78;5035534;28;20365;-68
2023/03/07 03:59:46;;;;;;;56.05;31.40;;;;;;;6.08;100.00;99376.78;5029306;28;20040;-68
2023/03/07 04:02:12;;;;;;;53.75;31.08;;;;;;;5.99;100.00;99372.22;5028735;28;20466;-67
2023/03/07 04:04:37;;;;;;;56.03;30.23;;;;;;;5.92;100.00;99367.53;5026038;28;20049;-67
2023/03/07 04:07:03;;;;;;;54.63;30.40;;;;;;;5.90;100.00;99365.00;5009248;28;20446;-67
2023/03/07 04:09:30;;;;;;;52.78;29.83;;;;;;;5.83;100.00;99361.19;5011000;28;20028;-68
2023/03/07 04:11:55;;;;;;;55.90;31.15;;;;;;;5.80;100.00;99356.09;5028708;28;20056;-68
2023/03/07 04:14:21;;;;;;;52.00;31.50;;;;;;;5.76;100.00;99356.47;5029046;28;20025;-67
2023/03/07 04:16:46;;;;;;;53.65;29.60;;;;;;;5.75;100.00;99352.13;5010903;28;20087;-68
2023/03/07 04:19:12;;;;;;;53.97;30.17;;;;;;;5.71;100.00;99345.38;5010873;28;20476;-68
2023/03/07 04:21:39;;;;;;;57.72;31.75;;;;;;;5.71;100.00;99338.22;5011999;28;20037;-67
2023/03/07 04:24:06;;;;;;;53.15;29.75;;;;;;;5.62;100.00;99335.50;5008624;28;20477;-67
2023/03/07 04:26:32;;;;;;;53.72;30.48;;;;;;;5.69;100.00;99342.00;5010932;28;20646;-68
2023/03/07 04:28:57;;;;;;;54.00;31.20;;;;;;;5.66;100.00;99350.22;5028346;28;20031;-68
2023/03/07 04:31:25;;;;;;;58.17;32.35;;;;;;;5.65;100.00;99359.19;5028623;28;20036;-68
2023/03/07 04:33:52;;;;;;;55.33;32.17;;;;;;;5.64;100.00;99368.13;5010936;28;20040;-66
2023/03/07 04:36:18;;;;;;;55.75;31.92;;;;;;;5.64;100.00;99382.25;5028335;28;20025;-67
2023/03/07 04:38:45;;;;;;;52.33;29.88;;;;;;;5.58;100.00;99379.28;5028433;28;20056;-67
2023/03/07 04:41:13;;;;;;;55.83;31.38;;;;;;;5.68;100.00;99390.84;5010535;28;20461;-66
2023/03/07 04:43:39;;;;;;;55.67;31.75;;;;;;;5.66;100.00;99388.31;5028323;28;20048;-67
2023/03/07 04:46:04;;;;;;;56.63;30.10;;;;;;;5.80;100.00;99401.31;5028183;28;20432;-68
2023/03/07 04:48:30;;;;;;;59.90;32.78;;;;;;;5.61;100.00;99393.16;5028479;28;20041;-67
2023/03/07 04:50:55;;;;;;;61.30;31.33;;;;;;;5.68;100.00;99399.66;5027048;28;20025;-68
2023/03/07 04:53:21;;;;;;;57.03;31.52;;;;;;;5.58;100.00;99396.06;5008301;28;20025;-68
2023/03/07 04:55:47;;;;;;;60.85;32.25;;;;;;;5.67;100.00;99399.81;5028118;28;20025;-67
2023/03/07 04:58:14;;;;;;;57.50;30.85;;;;;;;5.69;100.00;99403.16;5028247;28;20033;-67
2023/03/07 05:00:42;;;;;;;58.42;32.10;;;;;;;5.74;100.00;99401.00;5028126;28;20374;-68
2023/03/07 05:03:08;;;;;;;55.30;30.52;;;;;;;5.70;100.00;99397.72;5027760;28;20053;-68
2023/03/07 05:05:34;;;;;;;55.90;31.02;;;;;;;5.60;100.00;99396.78;5027987;28;20420;-68
2023/03/07 05:07:59;;;;;;;58.08;33.22;;;;;;;5.45;100.00;99383.91;5028270;28;20048;-68
2023/03/07 05:10:25;;;;;;;60.10;31.63;;;;;;;5.48;100.00;99403.09;5028169;28;20141;-67
2023/03/07 05:12:50;;;;;;;59.08;32.45;;;;;;;5.45;100.00;99406.00;5028119;28;20034;-67
2023/03/07 05:15:16;;;;;;;56.40;31.52;;;;;;;5.39;100.00;99403.88;5010273;28;20037;-68
2023/03/07 05:17:41;;;;;;;59.60;34.30;;;;;;;5.39;100.00;99411.00;5010349;28;20480;-68
2023/03/07 05:20:09;;;;;;;58.90;33.22;;;;;;;5.36;100.00;99414.75;5027905;28;20041;-68
2023/03/07 05:22:35;;;;;;;57.70;31.45;;;;;;;5.29;100.00;99413.53;5010388;28;20029;-69
2023/03/07 05:25:00;;;;;;;58.83;33.42;;;;;;;5.31;100.00;99403.63;5013175;28;20401;-68
2023/03/07 05:27:26;;;;;;;60.00;33.28;;;;;;;5.47;100.00;99422.69;5004304;28;20058;-68
2023/03/07 05:29:51;;;;;;;53.72;31.48;;;;;;;5.46;100.00;99413.03;5007499;28;20052;-67
2023/03/07 05:32:17;;;;;;;65.55;33.80;;;;;;;5.49;100.00;99419.91;5007045;28;20053;-68
2023/03/07 05:34:45;;;;;;;62.78;33.42;;;;;;;5.35;100.00;99406.91;5006351;28;20034;-68
2023/03/07 05:37:11;;;;;;;62.50;35.78;;;;;;;5.23;100.00;99390.13;5007817;28;20025;-68
2023/03/07 05:39:37;;;;;;;66.18;34.15;;;;;;;5.33;100.00;99425.63;5007699;28;20077;-67
2023/03/07 05:42:02;;;;;;;63.53;33.38;;;;;;;5.32;100.00;99420.44;5007943;28;20042;-67
2023/03/07 05:44:28;;;;;;;64.03;33.75;;;;;;;5.30;100.00;99422.38;5008275;28;20442;-67
2023/03/07 05:46:53;;;;;;;62.58;34.28;;;;;;;5.35;100.00;99410.38;5007654;28;20028;-67
2023/03/07 05:49:19;;;;;;;61.85;33.75;;;;;;;5.41;100.00;99420.53;5007688;28;20038;-68
2023/03/07 05:51:44;;;;;;;59.00;33.65;;;;;;;5.31;100.00;99408.97;5010935;28;20021;-68
2023/03/07 05:54:09;;;;;;;60.15;34.17;;;;;;;5.31;100.00;99424.91;5023098;28;20029;-68
2023/03/07 05:56:36;;;;;;;57.33;33.90;;;;;;;5.22;100.00;99414.19;5004562;28;20030;-69
2023/03/07 05:59:02;;;;;;;62.47;33.67;;;;;;;5.29;100.00;99424.16;5008052;28;20040;-68
2023/03/07 06:01:28;;;;;;;63.10;35.70;;;;;;;5.31;100.00;99426.72;5024563;28;20021;-68
2023/03/07 06:03:53;;;;;;;67.30;35.85;;;;;;;5.36;100.00;99422.75;5015797;28;20053;-70
2023/03/07 06:06:19;;;;;;;71.28;36.72;;;;;;;5.27;100.00;99415.50;5014221;28;20365;-71
2023/03/07 06:08:44;;;;;;;69.45;36.90;;;;;;;5.28;100.00;99419.84;5029364;28;20033;-69
2023/03/07 06:11:10;;;;;;;63.13;36.80;;;;;;;5.37;100.00;99429.72;5022766;28;20030;-70
2023/03/07 06:13:36;;;;;;;62.00;36.97;;;;;;;5.30;100.00;99412.59;5011119;28;20033;-68
2023/03/07 06:16:01;;;;;;;61.83;36.85;;;;;;;5.35;100.00;99423.69;5016126;28;20032;-67
2023/03/07 06:18:27;;;;;;;66.38;37.35;;;;;;;5.42;100.00;99438.16;5019270;28;20026;-68
2023/03/07 06:21:00;;;;;;;70.72;41.70;;;;;;;5.42;100.00;99435.50;5011302;28;20037;-67
2023/03/07 06:23:28;;;;;;;69.78;38.90;;;;;;;5.46;100.00;99442.28;5009429;28;20030;-67
2023/03/07 06:25:54;;;;;;;71.22;38.50;;;;;;;5.38;100.00;99426.09;5021056;28;20034;-67
2023/03/07 06:28:19;;;;;;;64.18;36.97;;;;;;;5.42;100.00;99435.50;5008648;28;20385;-67
2023/03/07 06:30:45;;;;;;;69.25;36.53;;;;;;;5.46;100.00;99430.78;5012230;28;20044;-68
2023/03/07 06:33:11;;;;;;;71.30;38.08;;;;;;;5.60;100.00;99447.31;5023514;28;20053;-68
2023/03/07 06:35:42;;;;;;;63.83;37.28;;;;;;;5.62;100.00;99453.38;5029877;28;20041;-68
2023/03/07 06:38:09;;;;;;;66.53;37.92;;;;;;;5.66;100.00;99460.13;5020355;28;20080;-67
2023/03/07 06:40:34;;;;;;;70.95;39.75;;;;;;;5.63;100.00;99440.91;5012177;28;20075;-68
2023/03/07 06:43:00;;;;;;;70.07;37.50;;;;;;;5.71;100.00;99457.09;5026216;28;20463;-70
2023/03/07 06:45:25;;;;;;;70.60;39.58;;;;;;;5.76;100.00;99446.91;5025824;28;20026;-71
2023/03/07 06:47:51;;;;;;;63.08;37.35;;;;;;;5.78;100.00;99437.00;5012431;28;20040;-67
2023/03/07 06:50:17;;;;;;;61.20;35.05;;;;;;;5.89;100.00;99459.13;5010087;28;20036;-68
2023/03/07 06:52:43;;;;;;;68.97;36.08;;;;;;;5.91;100.00;99464.31;5010249;28;20397;-68
2023/03/07 06:55:09;;;;;;;64.80;37.42;;;;;;;5.86;100.00;99464.69;5029068;28;20096;-68
2023/03/07 06:57:34;;;;;;;77.32;39.92;;;;;;;5.85;100.00;99455.03;5010250;28;20037;-69
2023/03/07 07:00:05;;;;;;;74.80;40.85;;;;;;;5.86;100.00;99453.19;5005119;28;20076;-69
2023/03/07 07:02:31;;;;;;;63.47;38.60;;;;;;;5.90;100.00;99465.28;5021820;28;20046;-69
2023/03/07 07:04:57;;;;;;;71.60;38.10;;;;;;;5.86;100.00;99463.84;5030917;28;20037;-69
2023/03/07 07:07:23;;;;;;;68.32;37.97;;;;;;;5.89;100.00;99468.91;5029494;28;20401;-68
2023/03/07 07:09:49;;;;;;;69.88;37.90;;;;;;;6.01;100.00;99479.41;5019475;28;20045;-68
2023/03/07 07:12:14;;;;;;;69.28;37.60;;;;;;;6.03;100.00;99482.75;5043196;28;20083;-67
2023/03/07 07:14:40;;;;;;;66.78;36.38;;;;;;;6.04;100.00;99465.00;5027807;28;20064;-67
2023/03/07 07:17:05;;;;;;;61.95;36.03;;;;;;;6.09;100.00;99478.75;5028533;28;20469;-69
2023/03/07 07:19:31;;;;;;;60.40;34.30;;;;;;;6.32;100.00;99488.34;5029154;28;20025;-69
2023/03/07 07:21:56;;;;;;;66.32;35.17;;;;;;;6.37;100.00;99483.47;5029190;28;20408;-69
2023/03/07 07:24:22;;;;;;;57.45;32.63;;;;;;;6.49;100.00;99490.44;5020899;28;20070;-69
2023/03/07 07:26:48;;;;;;;67.63;33.85;;;;;;;6.47;100.00;99487.91;5032429;28;20048;-69
2023/03/07 07:29:14;;;;;;;56.20;31.33;;;;;;;6.49;100.00;99483.28;5023936;28;20480;-68
2023/03/07 07:31:40;;;;;;;61.20;32.67;;;;;;;6.66;100.00;99490.69;5033411;28;20029;-70
2023/03/07 07:34:05;;;;;;;51.88;29.45;;;;;;;6.64;100.00;99483.78;5030679;28;20403;-70
2023/03/07 07:36:31;;;;;;;51.40;27.85;;;;;;;6.66;100.00;99484.53;5030647;28;20032;-70
2023/03/07 07:38:57;;;;;;;55.38;30.45;;;;;;;6.80;100.00;99490.34;5030853;28;20108;-70
2023/03/07 07:41:22;;;;;;;49.95;28.17;;;;;;;6.84;100.00;99490.97;5031242;28;20041;-71
2023/03/07 07:43:52;;;;;;;55.53;28.77;;;;;;;6.94;100.00;99489.19;5045433;28;20029;-72
2023/03/07 07:46:17;;;;;;;53.40;30.10;;;;;;;6.88;100.00;99482.56;5030559;28;20044;-70
2023/03/07 07:48:45;;;;;;;54.72;29.98;;;;;;;6.99;100.00;99490.47;5033352;28;20037;-69
2023/03/07 07:51:10;;;;;;;49.00;26.38;;;;;;;7.07;100.00;99493.31;5030724;28;20068;-70
2023/03/07 07:53:35;;;;;;;46.08;26.50;;;;;;;7.17;97.47;99480.03;5031050;28;20049;-69
2023/03/07 07:56:01;;;;;;;42.95;22.83;;;;;;;7.15;97.49;99481.97;5030159;28;20025;-70
2023/03/07 07:58:26;;;;;;;41.05;23.27;;;;;;;7.24;96.11;99491.00;5030285;28;20030;-70
2023/03/07 08:00:52;;;;;;;38.88;23.23;;;;;;;7.26;95.70;99489.91;5030981;28;20524;-69
2023/03/07 08:03:17;;;;;;;41.45;22.60;;;;;;;7.29;96.61;99494.13;5033298;28;20045;-70
2023/03/07 08:05:47;;;;;;;42.65;23.38;;;;;;;7.24;96.23;99489.19;5030115;28;20558;-69
2023/03/07 08:08:17;;;;;;;40.85;23.10;;;;;;;7.26;97.06;99500.56;5030081;28;20022;-71
2023/03/07 08:10:45;;;;;;;43.15;23.63;;;;;;;7.26;97.33;99497.06;5028699;28;20037;-70
2023/03/07 08:13:15;;;;;;;41.53;22.63;;;;;;;7.29;97.72;99502.97;5029673;28;20030;-68
2023/03/07 08:15:41;;;;;;;41.25;23.48;;;;;;;7.50;95.12;99502.88;5011356;28;20530;-69
2023/03/07 08:18:07;;;;;;;38.42;22.10;;;;;;;7.66;93.00;99498.75;5028799;28;20108;-68
2023/03/07 08:20:33;;;;;;;37.85;22.90;;;;;;;7.82;91.35;99506.22;5028822;28;20120;-68
2023/03/07 08:22:58;;;;;;;36.55;21.98;;;;;;;7.67;90.02;99486.25;5028863;28;20038;-69
2023/03/07 08:25:24;;;;;;;35.30;22.10;;;;;;;7.61;90.79;99498.28;5028980;28;20033;-69
2023/03/07 08:27:53;;;;;;;38.38;22.38;;;;;;;7.53;90.50;99483.94;5028563;28;20025;-69
2023/03/07 08:30:23;;;;;;;32.50;20.60;;;;;;;7.48;92.11;99488.88;5028760;28;20095;-69
2023/03/07 08:32:50;;;;;;;38.33;22.63;;;;;;;7.48;92.73;99486.19;5020270;28;20025;-69
2023/03/07 08:35:16;;;;;;;39.65;21.55;;;;;;;7.46;92.64;99477.47;5010624;28;20426;-69
2023/03/07 08:37:41;;;;;;;37.63;22.08;;;;;;;7.50;92.77;99485.06;5010789;28;20034;-69
2023/03/07 08:40:07;;;;;;;38.38;21.73;;;;;;;7.50;92.96;99484.22;5028243;28;20052;-69
2023/03/07 08:42:33;;;;;;;34.97;20.85;;;;;;;7.47;93.44;99479.16;5028614;28;20080;-68
2023/03/07 08:44:58;;;;;;;36.00;21.55;;;;;;;7.59;91.93;99475.41;5028153;28;20057;-69
2023/03/07 08:47:24;;;;;;;37.03;21.60;;;;;;;7.59;91.10;99468.25;5028400;28;20053;-69
2023/03/07 08:49:50;;;;;;;38.95;20.60;;;;;;;7.75;90.51;99478.41;5010751;28;20080;-69
2023/03/07 08:52:15;;;;;;;37.42;20.60;;;;;;;7.78;90.08;99470.97;5010619;28;20068;-69
2023/03/07 08:54:41;;;;;;;37.40;20.33;;;;;;;7.92;89.73;99481.25;5028380;28;20116;-69
2023/03/07 08:57:06;;;;;;;40.72;21.42;;;;;;;7.94;89.27;99473.94;5020033;28;20025;-69
2023/03/07 08:59:31;;;;;;;35.08;20.73;;;;;;;7.97;90.35;99483.50;5028375;28;20492;-67
2023/03/07 09:01:57;;;;;;;36.10;20.90;;;;;;;7.93;89.72;99476.75;5028226;28;20124;-68
2023/03/07 09:04:23;;;;;;;34.75;19.67;;;;;;;7.91;89.35;99479.56;5027049;28;20472;-69
2023/03/07 09:06:49;;;;;;;32.30;18.77;;;;;;;7.88;89.49;99474.50;5028132;28;20088;-68
2023/03/07 09:09:14;;;;;;;32.30;17.95;;;;;;;8.03;86.12;99482.94;5028267;28;20400;-68
2023/03/07 09:11:43;;;;;;;31.67;17.98;;;;;;;8.01;86.12;99492.91;5028310;28;20588;-67
2023/03/07 09:14:08;;;;;;;32.40;18.02;;;;;;;7.92;87.07;99483.91;5026544;28;20025;-69
2023/03/07 09:16:33;;;;;;;31.45;18.67;;;;;;;7.98;86.32;99495.84;5028262;28;20091;-69
2023/03/07 09:18:59;;;;;;;32.15;17.77;;;;;;;7.90;87.48;99483.19;5010800;28;20064;-68
2023/03/07 09:21:24;;;;;;;31.48;17.67;;;;;;;7.80;87.14;99466.31;5028149;28;20037;-69
2023/03/07 09:23:50;;;;;;;32.92;17.42;;;;;;;7.93;86.75;99495.44;5028362;28;20033;-68
2023/03/07 09:26:15;;;;;;;36.33;18.15;;;;;;;7.95;85.96;99499.66;5027881;28;20026;-68
2023/03/07 09:28:41;;;;;;;32.85;19.20;;;;;;;8.03;84.67;99505.13;5010370;28;20025;-68
2023/03/07 09:31:08;;;;;;;31.33;18.73;;;;;;;7.91;85.51;99498.25;5027778;28;20031;-69
2023/03/07 09:33:34;;;;;;;30.05;18.15;;;;;;;8.13;84.47;99518.50;5028362;28;20029;-69
2023/03/07 09:36:03;;;;;;;37.10;18.65;;;;;;;8.10;84.78;99522.28;5027868;28;20028;-69
2023/03/07 09:38:29;;;;;;;31.85;19.50;;;;;;;8.12;82.79;99512.31;5028259;28;20041;-69
2023/03/07 09:40:56;;;;;;;34.08;18.58;;;;;;;7.95;83.83;99496.97;5032938;28;20042;-70
2023/03/07 09:43:25;;;;;;;35.78;19.13;;;;;;;7.97;84.95;99508.34;5021181;28;20048;-69
2023/03/07 09:46:18;;;;;;;33.92;19.83;;;;;;;7.98;86.12;99509.19;5030352;28;20034;-69
2023/03/07 09:49:10;;;;;;;38.92;20.63;;;;;;;8.17;82.58;99519.91;5032191;28;20033;-69
2023/03/07 09:51:41;;;;;;;36.22;19.77;;;;;;;8.17;82.57;99511.91;5032106;28;20391;-68
2023/03/07 09:54:17;;;;;;;28.95;18.08;;;;;;;8.22;81.23;99507.03;5031552;28;20116;-68
2023/03/07 09:56:47;;;;;;;36.53;18.05;;;;;;;8.19;83.13;99507.28;5031421;28;20018;-69
2023/03/07 09:59:31;;;;;;;31.17;17.73;;;;;;;8.16;83.14;99521.72;5031500;28;20040;-69
2023/03/07 10:02:14;;;;;;;32.45;17.65;;;;;;;8.15;83.12;99519.19;5031555;28;20167;-70
2023/03/07 10:04:57;;;;;;;29.65;16.05;;;;;;;8.17;83.40;99527.94;5031260;28;20040;-69
2023/03/07 10:07:24;;;;;;;31.17;17.07;;;;;;;8.15;82.25;99520.06;5031281;28;20513;-70
2023/03/07 10:09:55;;;;;;;26.90;16.38;;;;;;;8.14;82.01;99517.50;5031172;28;20037;-69
2023/03/07 10:12:53;;;;;;;29.92;17.60;;;;;;;8.19;81.33;99523.31;5031428;28;20064;-69
2023/03/07 10:15:41;;;;;;;28.92;16.63;;;;;;;8.11;81.88;99507.97;5007688;28;20071;-70
2023/03/07 10:18:25;;;;;;;30.15;16.15;;;;;;;8.42;79.93;99517.56;5031146;28;20116;-70
2023/03/07 10:21:02;;;;;;;25.60;15.48;;;;;;;8.29;79.57;99519.66;5031063;28;20622;-70
2023/03/07 10:24:05;;;;;;;30.52;17.60;;;;;;;8.23;81.28;99514.91;5031459;28;20031;-69
2023/03/07 10:26:43;;;;;;;25.50;16.20;;;;;;;8.20;82.94;99517.81;5012273;28;20048;-69
2023/03/07 10:29:21;;;;;;;27.33;16.30;;;;;;;8.14;83.88;99493.47;5030772;28;20033;-69
2023/03/07 10:32:11;;;;;;;29.58;16.98;;;;;;;8.37;82.94;99506.47;5030993;28;20152;-69
2023/03/07 10:34:38;;;;;;;28.48;16.60;;;;;;;8.31;83.38;99499.00;5030919;28;20447;-70
2023/03/07 10:37:15;;;;;;;31.15;17.08;;;;;;;8.50;81.14;99490.13;5030740;28;20491;-69
2023/03/07 10:39:51;;;;;;;28.58;17.58;;;;;;;8.46;82.46;99500.28;5011667;28;20128;-69
2023/03/07 10:42:20;;;;;;;25.83;15.45;;;;;;;8.45;82.96;99495.91;5030608;28;20087;-70
2023/03/07 10:44:47;;;;;;;30.70;16.42;;;;;;;8.52;82.24;99485.50;5030574;28;20108;-69
2023/03/07 10:47:25;;;;;;;25.50;15.70;;;;;;;8.68;80.17;99493.78;5030258;28;20037;-70
2023/03/07 10:49:56;;;;;;;28.02;16.55;;;;;;;8.67;80.19;99489.41;5029993;28;20057;-70
2023/03/07 10:52:31;;;;;;;28.13;15.93;;;;;;;8.66;79.68;99485.06;5028753;28;20063;-70
2023/03/07 10:55:33;;;;;;;28.48;16.45;;;;;;;8.74;77.72;99494.03;5030453;28;20053;-70
2023/03/07 10:58:21;;;;;;;25.17;15.07;;;;;;;8.65;78.62;99496.75;5030285;28;20049;-70
2023/03/07 11:01:07;;;;;;;23.02;14.43;;;;;;;8.66;77.92;99493.06;5029160;28;20630;-69
2023/03/07 11:03:54;;;;;;;25.35;14.50;;;;;;;8.65;77.41;99489.56;5046900;28;20095;-69
2023/03/07 11:06:30;;;;;;;23.90;13.02;;;;;;;8.68;77.21;99494.63;5032018;28;20114;-69
2023/03/07 11:08:56;;;;;;;26.48;13.20;;;;;;;8.76;75.43;99493.91;5050423;28;20029;-69
2023/03/07 11:11:25;;;;;;;25.33;13.65;;;;;;;8.73;75.76;99492.38;5049989;28;20044;-70
2023/03/07 11:14:12;;;;;;;25.00;13.98;;;;;;;8.70;75.31;99489.13;5049977;28;20155;-68
2023/03/07 11:16:48;;;;;;;20.38;12.98;;;;;;;8.86;73.18;99487.56;5039758;28;20096;-69
2023/03/07 11:19:35;;;;;;;22.75;12.80;;;;;;;8.76;74.57;99493.91;5040261;28;20060;-69
2023/03/07 11:22:14;;;;;;;24.75;12.85;;;;;;;8.76;74.25;99477.88;5018852;28;20025;-68
2023/03/07 11:24:48;;;;;;;20.83;12.48;;;;;;;8.80;74.43;99469.41;5033946;28;20037;-70